sensor_id;sensor_type;location;lat;lon;timestamp;temperature;humidity
45115;DHT22;30877;43.706;10.780;2023-03-14T00:01:12;14.70;96.70
45115;DHT22;30877;43.706;10.780;2023-03-14T00:03:41;14.60;96.70
45115;DHT22;30877;43.706;10.780;2023-03-14T00:06:09;14.60;96.70
45115;DHT22;30877;43.706;10.780;2023-03-14T00:08:38;14.50;96.70
45115;DHT22;30877;43.706;10.780;2023-03-14T00:11:07;14.50;96.70
45115;DHT22;30877;43.706;10.780;2023-03-14T00:13:37;14.40;96.70
45115;DHT22;30877;43.706;10.780;2023-03-14T00:16:06;14.40;96.70
45115;DHT22;30877;43.706;10.780;2023-03-14T00:18:35;14.30;96.70
45115;DHT22;30877;43.706;10.780;2023-03-14T00:21:04;14.30;96.70
45115;DHT22;30877;43.706;10.780;2023-03-14T00:23:34;14.20;96.70
45115;DHT22;30877;43.706;10.780;2023-03-14T00:26:04;14.20;96.70
45115;DHT22;30877;43.706;10.780;2023-03-14T00:28:32;14.20;96.70
45115;DHT22;30877;43.706;10.780;2023-03-14T00:31:04;14.20;96.70
45115;DHT22;30877;43.706;10.780;2023-03-14T00:33:33;14.20;96.70
45115;DHT22;30877;43.706;10.780;2023-03-14T00:36:04;14.10;96.70
45115;DHT22;30877;43.706;10.780;2023-03-14T00:38:33;14.10;96.70
45115;DHT22;30877;43.706;10.780;2023-03-14T00:41:03;14.00;96.70
45115;DHT22;30877;43.706;10.780;2023-03-14T00:43:31;14.00;96.70
45115;DHT22;30877;43.706;10.780;2023-03-14T00:45:59;14.00;96.70
45115;DHT22;30877;43.706;10.780;2023-03-14T00:48:28;14.00;96.70
45115;DHT22;30877;43.706;10.780;2023-03-14T00:50:56;13.90;96.70
45115;DHT22;30877;43.706;10.780;2023-03-14T00:53:24;13.80;96.70
45115;DHT22;30877;43.706;10.780;2023-03-14T00:55:51;13.70;96.70
45115;DHT22;30877;43.706;10.780;2023-03-14T00:58:19;13.60;96.70
45115;DHT22;30877;43.706;10.780;2023-03-14T01:00:47;13.60;96.70
45115;DHT22;30877;43.706;10.780;2023-03-14T01:03:15;13.60;96.70
45115;DHT22;30877;43.706;10.780;2023-03-14T01:05:44;13.50;96.70
45115;DHT22;30877;43.706;10.780;2023-03-14T01:08:12;13.60;96.70
45115;DHT22;30877;43.706;10.780;2023-03-14T01:10:40;13.60;96.70
45115;DHT22;30877;43.706;10.780;2023-03-14T01:13:09;13.60;96.70
45115;DHT22;30877;43.706;10.780;2023-03-14T01:15:37;13.60;96.70
45115;DHT22;30877;43.706;10.780;2023-03-14T01:18:05;13.60;96.70
45115;DHT22;30877;43.706;10.780;2023-03-14T01:20:33;13.60;96.70
45115;DHT22;30877;43.706;10.780;2023-03-14T01:23:02;13.50;96.70
45115;DHT22;30877;43.706;10.780;2023-03-14T01:25:30;13.50;96.70
45115;DHT22;30877;43.706;10.780;2023-03-14T01:27:58;13.50;96.70
45115;DHT22;30877;43.706;10.780;2023-03-14T01:30:28;13.50;96.70
45115;DHT22;30877;43.706;10.780;2023-03-14T01:32:56;13.50;96.70
45115;DHT22;30877;43.706;10.780;2023-03-14T01:35:24;13.40;96.70
45115;DHT22;30877;43.706;10.780;2023-03-14T01:37:51;13.50;96.70
45115;DHT22;30877;43.706;10.780;2023-03-14T01:40:23;13.40;96.70
45115;DHT22;30877;43.706;10.780;2023-03-14T01:42:55;13.40;96.70
45115;DHT22;30877;43.706;10.780;2023-03-14T01:48:32;13.40;96.70
45115;DHT22;30877;43.706;10.780;2023-03-14T01:51:05;13.40;96.70
45115;DHT22;30877;43.706;10.780;2023-03-14T01:53:38;13.40;96.70
45115;DHT22;30877;43.706;10.780;2023-03-14T01:56:09;13.40;96.70
45115;DHT22;30877;43.706;10.780;2023-03-14T01:58:39;13.30;96.70
45115;DHT22;30877;43.706;10.780;2023-03-14T02:01:09;13.10;96.70
45115;DHT22;30877;43.706;10.780;2023-03-14T02:03:42;13.10;96.70
45115;DHT22;30877;43.706;10.780;2023-03-14T02:06:15;13.20;96.70
45115;DHT22;30877;43.706;10.780;2023-03-14T02:08:46;13.20;96.70
45115;DHT22;30877;43.706;10.780;2023-03-14T02:11:27;13.20;96.70
45115;DHT22;30877;43.706;10.780;2023-03-14T02:14:06;13.10;96.70
45115;DHT22;30877;43.706;10.780;2023-03-14T02:17:02;13.10;96.70
45115;DHT22;30877;43.706;10.780;2023-03-14T02:20:05;13.00;96.70
45115;DHT22;30877;43.706;10.780;2023-03-14T02:22:40;13.00;96.70
45115;DHT22;30877;43.706;10.780;2023-03-14T02:25:13;13.10;96.70
45115;DHT22;30877;43.706;10.780;2023-03-14T02:27:47;13.10;96.70
45115;DHT22;30877;43.706;10.780;2023-03-14T02:32:49;13.10;96.70
45115;DHT22;30877;43.706;10.780;2023-03-14T02:35:21;13.10;96.70
45115;DHT22;30877;43.706;10.780;2023-03-14T02:37:55;13.10;96.70
45115;DHT22;30877;43.706;10.780;2023-03-14T02:40:28;13.20;96.70
45115;DHT22;30877;43.706;10.780;2023-03-14T02:42:58;13.20;96.70
45115;DHT22;30877;43.706;10.780;2023-03-14T02:45:38;13.20;96.70
45115;DHT22;30877;43.706;10.780;2023-03-14T02:48:11;13.20;96.70
45115;DHT22;30877;43.706;10.780;2023-03-14T02:50:42;13.30;96.70
45115;DHT22;30877;43.706;10.780;2023-03-14T02:53:13;13.30;96.70
45115;DHT22;30877;43.706;10.780;2023-03-14T02:55:45;13.30;96.70
45115;DHT22;30877;43.706;10.780;2023-03-14T02:58:18;13.30;96.70
45115;DHT22;30877;43.706;10.780;2023-03-14T03:00:52;13.30;96.70
45115;DHT22;30877;43.706;10.780;2023-03-14T03:03:20;13.30;96.70
45115;DHT22;30877;43.706;10.780;2023-03-14T03:05:49;13.30;96.70
45115;DHT22;30877;43.706;10.780;2023-03-14T03:08:19;13.30;96.70
45115;DHT22;30877;43.706;10.780;2023-03-14T03:10:48;13.30;96.70
45115;DHT22;30877;43.706;10.780;2023-03-14T03:13:19;13.40;96.70
45115;DHT22;30877;43.706;10.780;2023-03-14T03:15:52;13.40;96.70
45115;DHT22;30877;43.706;10.780;2023-03-14T03:18:20;13.30;96.70
45115;DHT22;30877;43.706;10.780;2023-03-14T03:20:49;13.30;96.70
45115;DHT22;30877;43.706;10.780;2023-03-14T03:23:17;13.30;96.70
45115;DHT22;30877;43.706;10.780;2023-03-14T03:25:48;13.30;96.70
45115;DHT22;30877;43.706;10.780;2023-03-14T03:28:18;13.30;96.70
45115;DHT22;30877;43.706;10.780;2023-03-14T03:30:47;13.30;96.70
45115;DHT22;30877;43.706;10.780;2023-03-14T03:33:15;13.30;96.70
45115;DHT22;30877;43.706;10.780;2023-03-14T03:35:46;13.20;96.70
45115;DHT22;30877;43.706;10.780;2023-03-14T03:38:19;13.20;96.70
45115;DHT22;30877;43.706;10.780;2023-03-14T03:40:50;13.20;96.70
45115;DHT22;30877;43.706;10.780;2023-03-14T03:43:21;13.10;96.70
45115;DHT22;30877;43.706;10.780;2023-03-14T03:45:50;13.20;96.70
45115;DHT22;30877;43.706;10.780;2023-03-14T03:48:19;13.20;96.70
45115;DHT22;30877;43.706;10.780;2023-03-14T03:50:48;13.30;96.70
45115;DHT22;30877;43.706;10.780;2023-03-14T03:53:20;13.20;96.70
45115;DHT22;30877;43.706;10.780;2023-03-14T03:56:02;13.30;96.70
45115;DHT22;30877;43.706;10.780;2023-03-14T03:58:32;13.20;96.70
45115;DHT22;30877;43.706;10.780;2023-03-14T04:01:02;13.20;96.70
45115;DHT22;30877;43.706;10.780;2023-03-14T04:03:30;13.10;96.70
45115;DHT22;30877;43.706;10.780;2023-03-14T04:05:59;13.10;96.70
45115;DHT22;30877;43.706;10.780;2023-03-14T04:08:28;13.00;96.70
45115;DHT22;30877;43.706;10.780;2023-03-14T04:10:58;13.00;96.70
45115;DHT22;30877;43.706;10.780;2023-03-14T04:13:57;12.90;96.70
45115;DHT22;30877;43.706;10.780;2023-03-14T04:16:27;12.90;96.70
45115;DHT22;30877;43.706;10.780;2023-03-14T04:19:02;12.90;96.70
45115;DHT22;30877;43.706;10.780;2023-03-14T04:21:32;12.90;96.70
45115;DHT22;30877;43.706;10.780;2023-03-14T04:24:00;12.80;96.70
45115;DHT22;30877;43.706;10.780;2023-03-14T04:26:31;12.70;96.70
45115;DHT22;30877;43.706;10.780;2023-03-14T04:29:01;12.80;96.70
45115;DHT22;30877;43.706;10.780;2023-03-14T04:31:30;12.80;96.70
45115;DHT22;30877;43.706;10.780;2023-03-14T04:33:59;12.80;96.70
45115;DHT22;30877;43.706;10.780;2023-03-14T04:36:34;12.70;96.70
45115;DHT22;30877;43.706;10.780;2023-03-14T04:39:09;12.80;96.70
45115;DHT22;30877;43.706;10.780;2023-03-14T04:41:42;12.80;96.70
45115;DHT22;30877;43.706;10.780;2023-03-14T04:44:13;12.80;96.70
45115;DHT22;30877;43.706;10.780;2023-03-14T04:46:42;12.80;96.70
45115;DHT22;30877;43.706;10.780;2023-03-14T04:49:24;12.80;96.70
45115;DHT22;30877;43.706;10.780;2023-03-14T04:51:52;12.80;96.70
45115;DHT22;30877;43.706;10.780;2023-03-14T04:54:22;12.90;96.70
45115;DHT22;30877;43.706;10.780;2023-03-14T04:56:54;13.00;96.70
45115;DHT22;30877;43.706;10.780;2023-03-14T04:59:25;13.00;96.70
45115;DHT22;30877;43.706;10.780;2023-03-14T05:01:58;13.00;96.70
45115;DHT22;30877;43.706;10.780;2023-03-14T05:05:05;13.00;96.70
45115;DHT22;30877;43.706;10.780;2023-03-14T05:08:09;13.00;96.70
45115;DHT22;30877;43.706;10.780;2023-03-14T05:10:57;13.00;96.70
45115;DHT22;30877;43.706;10.780;2023-03-14T05:13:36;13.00;96.70
45115;DHT22;30877;43.706;10.780;2023-03-14T05:16:27;13.00;96.70
45115;DHT22;30877;43.706;10.780;2023-03-14T05:19:01;13.00;96.70
45115;DHT22;30877;43.706;10.780;2023-03-14T05:22:05;13.00;96.70
45115;DHT22;30877;43.706;10.780;2023-03-14T05:24:59;12.90;96.70
45115;DHT22;30877;43.706;10.780;2023-03-14T05:27:59;12.90;96.70
45115;DHT22;30877;43.706;10.780;2023-03-14T05:30:46;12.80;96.70
45115;DHT22;30877;43.706;10.780;2023-03-14T05:33:37;12.80;96.70
45115;DHT22;30877;43.706;10.780;2023-03-14T05:36:28;12.70;96.70
45115;DHT22;30877;43.706;10.780;2023-03-14T05:39:17;12.70;96.70
45115;DHT22;30877;43.706;10.780;2023-03-14T05:42:06;12.70;96.70
45115;DHT22;30877;43.706;10.780;2023-03-14T05:44:54;12.80;96.70
45115;DHT22;30877;43.706;10.780;2023-03-14T05:47:41;12.80;96.70
45115;DHT22;30877;43.706;10.780;2023-03-14T05:50:29;12.90;96.70
45115;DHT22;30877;43.706;10.780;2023-03-14T05:53:16;13.00;96.70
45115;DHT22;30877;43.706;10.780;2023-03-14T05:56:03;12.90;96.70
45115;DHT22;30877;43.706;10.780;2023-03-14T05:58:47;12.90;96.70
45115;DHT22;30877;43.706;10.780;2023-03-14T06:01:43;12.90;96.70
45115;DHT22;30877;43.706;10.780;2023-03-14T06:04:18;12.90;96.70
45115;DHT22;30877;43.706;10.780;2023-03-14T06:06:52;13.00;96.70
45115;DHT22;30877;43.706;10.780;2023-03-14T06:09:22;13.10;96.70
45115;DHT22;30877;43.706;10.780;2023-03-14T06:11:54;13.10;96.70
45115;DHT22;30877;43.706;10.780;2023-03-14T06:14:23;13.10;96.70
45115;DHT22;30877;43.706;10.780;2023-03-14T06:16:52;13.10;96.70
45115;DHT22;30877;43.706;10.780;2023-03-14T06:19:22;13.20;96.70
45115;DHT22;30877;43.706;10.780;2023-03-14T06:21:53;13.20;96.70
45115;DHT22;30877;43.706;10.780;2023-03-14T06:24:22;13.30;96.70
45115;DHT22;30877;43.706;10.780;2023-03-14T06:26:52;13.30;96.70
45115;DHT22;30877;43.706;10.780;2023-03-14T06:29:20;13.30;96.70
45115;DHT22;30877;43.706;10.780;2023-03-14T06:31:49;13.30;96.70
45115;DHT22;30877;43.706;10.780;2023-03-14T06:34:18;13.20;96.70
45115;DHT22;30877;43.706;10.780;2023-03-14T06:36:47;13.10;96.70
45115;DHT22;30877;43.706;10.780;2023-03-14T06:39:16;13.20;96.70
45115;DHT22;30877;43.706;10.780;2023-03-14T06:41:49;13.20;96.70
45115;DHT22;30877;43.706;10.780;2023-03-14T06:44:18;13.20;96.70
45115;DHT22;30877;43.706;10.780;2023-03-14T06:46:46;13.20;96.70
45115;DHT22;30877;43.706;10.780;2023-03-14T06:49:15;13.20;96.70
45115;DHT22;30877;43.706;10.780;2023-03-14T06:51:43;13.20;96.70
45115;DHT22;30877;43.706;10.780;2023-03-14T06:54:16;13.20;96.70
45115;DHT22;30877;43.706;10.780;2023-03-14T06:56:45;13.30;96.70
45115;DHT22;30877;43.706;10.780;2023-03-14T06:59:13;13.50;96.70
45115;DHT22;30877;43.706;10.780;2023-03-14T07:01:46;13.50;96.70
45115;DHT22;30877;43.706;10.780;2023-03-14T07:04:25;13.60;96.70
45115;DHT22;30877;43.706;10.780;2023-03-14T07:06:53;13.60;96.70
45115;DHT22;30877;43.706;10.780;2023-03-14T07:09:23;13.60;96.70
45115;DHT22;30877;43.706;10.780;2023-03-14T07:11:56;13.60;96.70
45115;DHT22;30877;43.706;10.780;2023-03-14T07:14:25;13.60;96.70
45115;DHT22;30877;43.706;10.780;2023-03-14T07:16:54;13.60;96.70
45115;DHT22;30877;43.706;10.780;2023-03-14T07:19:23;13.60;96.70
45115;DHT22;30877;43.706;10.780;2023-03-14T07:21:52;13.60;96.70
45115;DHT22;30877;43.706;10.780;2023-03-14T07:24:25;13.60;96.70
45115;DHT22;30877;43.706;10.780;2023-03-14T07:26:53;13.50;96.70
45115;DHT22;30877;43.706;10.780;2023-03-14T07:29:22;13.50;96.70
45115;DHT22;30877;43.706;10.780;2023-03-14T07:31:50;13.60;96.70
45115;DHT22;30877;43.706;10.780;2023-03-14T07:34:20;13.60;96.70
45115;DHT22;30877;43.706;10.780;2023-03-14T07:36:52;13.60;96.70
45115;DHT22;30877;43.706;10.780;2023-03-14T07:39:29;13.60;96.70
45115;DHT22;30877;43.706;10.780;2023-03-14T07:42:05;13.60;96.70
45115;DHT22;30877;43.706;10.780;2023-03-14T07:44:36;13.70;96.70
45115;DHT22;30877;43.706;10.780;2023-03-14T07:47:05;13.70;96.70
45115;DHT22;30877;43.706;10.780;2023-03-14T07:49:33;13.80;96.70
45115;DHT22;30877;43.706;10.780;2023-03-14T07:52:01;13.80;96.70
45115;DHT22;30877;43.706;10.780;2023-03-14T07:54:30;13.90;96.70
45115;DHT22;30877;43.706;10.780;2023-03-14T07:56:59;14.00;96.70
45115;DHT22;30877;43.706;10.780;2023-03-14T07:59:28;14.20;96.70
45115;DHT22;30877;43.706;10.780;2023-03-14T08:01:56;14.20;96.70
45115;DHT22;30877;43.706;10.780;2023-03-14T08:04:24;14.30;96.70
45115;DHT22;30877;43.706;10.780;2023-03-14T08:06:53;14.30;96.70
45115;DHT22;30877;43.706;10.780;2023-03-14T08:09:22;14.30;96.70
45115;DHT22;30877;43.706;10.780;2023-03-14T08:11:51;14.30;96.70
45115;DHT22;30877;43.706;10.780;2023-03-14T08:14:19;14.30;96.70
45115;DHT22;30877;43.706;10.780;2023-03-14T08:16:47;14.30;96.70
45115;DHT22;30877;43.706;10.780;2023-03-14T08:19:15;14.30;96.70
45115;DHT22;30877;43.706;10.780;2023-03-14T08:21:43;14.30;96.70
45115;DHT22;30877;43.706;10.780;2023-03-14T08:24:11;14.30;96.70
45115;DHT22;30877;43.706;10.780;2023-03-14T08:26:39;14.40;96.70
45115;DHT22;30877;43.706;10.780;2023-03-14T08:29:09;14.40;96.70
45115;DHT22;30877;43.706;10.780;2023-03-14T08:31:37;14.50;96.70
45115;DHT22;30877;43.706;10.780;2023-03-14T08:34:05;14.50;96.70
45115;DHT22;30877;43.706;10.780;2023-03-14T08:36:34;14.50;96.70
45115;DHT22;30877;43.706;10.780;2023-03-14T08:39:03;14.50;96.70
45115;DHT22;30877;43.706;10.780;2023-03-14T08:41:31;14.60;96.70
45115;DHT22;30877;43.706;10.780;2023-03-14T08:43:59;14.60;96.70
45115;DHT22;30877;43.706;10.780;2023-03-14T08:46:29;14.70;96.70
45115;DHT22;30877;43.706;10.780;2023-03-14T08:48:57;14.70;96.70
45115;DHT22;30877;43.706;10.780;2023-03-14T08:51:25;14.70;96.70
45115;DHT22;30877;43.706;10.780;2023-03-14T08:53:53;14.80;96.70
45115;DHT22;30877;43.706;10.780;2023-03-14T08:56:21;14.90;96.70
45115;DHT22;30877;43.706;10.780;2023-03-14T08:58:52;15.00;96.70
45115;DHT22;30877;43.706;10.780;2023-03-14T09:01:20;15.00;96.70
45115;DHT22;30877;43.706;10.780;2023-03-14T09:03:53;15.00;96.70
45115;DHT22;30877;43.706;10.780;2023-03-14T09:06:21;15.00;96.70
45115;DHT22;30877;43.706;10.780;2023-03-14T09:08:49;15.00;96.70
45115;DHT22;30877;43.706;10.780;2023-03-14T09:11:17;15.00;96.70
45115;DHT22;30877;43.706;10.780;2023-03-14T09:13:46;15.00;96.70
45115;DHT22;30877;43.706;10.780;2023-03-14T09:16:15;15.00;96.70
45115;DHT22;30877;43.706;10.780;2023-03-14T09:18:43;15.00;96.70
45115;DHT22;30877;43.706;10.780;2023-03-14T09:21:12;15.00;96.70
45115;DHT22;30877;43.706;10.780;2023-03-14T09:23:40;15.00;96.70
45115;DHT22;30877;43.706;10.780;2023-03-14T09:26:08;14.90;96.70
45115;DHT22;30877;43.706;10.780;2023-03-14T09:28:36;14.90;96.70
45115;DHT22;30877;43.706;10.780;2023-03-14T09:31:09;14.90;96.70
45115;DHT22;30877;43.706;10.780;2023-03-14T09:33:37;14.90;96.70
45115;DHT22;30877;43.706;10.780;2023-03-14T09:36:06;15.00;96.70
45115;DHT22;30877;43.706;10.780;2023-03-14T09:38:36;15.00;96.70
45115;DHT22;30877;43.706;10.780;2023-03-14T09:41:12;15.00;96.70
45115;DHT22;30877;43.706;10.780;2023-03-14T09:43:43;15.00;96.70
45115;DHT22;30877;43.706;10.780;2023-03-14T09:46:12;15.10;96.70
45115;DHT22;30877;43.706;10.780;2023-03-14T09:48:41;15.10;96.70
45115;DHT22;30877;43.706;10.780;2023-03-14T09:51:14;15.10;96.70
45115;DHT22;30877;43.706;10.780;2023-03-14T09:53:46;15.10;96.70
45115;DHT22;30877;43.706;10.780;2023-03-14T09:56:18;15.10;96.70
45115;DHT22;30877;43.706;10.780;2023-03-14T09:58:51;15.20;96.70
45115;DHT22;30877;43.706;10.780;2023-03-14T10:01:24;15.20;96.70
45115;DHT22;30877;43.706;10.780;2023-03-14T10:03:54;15.30;96.70
45115;DHT22;30877;43.706;10.780;2023-03-14T10:06:26;15.30;96.70
45115;DHT22;30877;43.706;10.780;2023-03-14T10:08:56;15.40;96.70
45115;DHT22;30877;43.706;10.780;2023-03-14T10:11:24;15.40;96.70
45115;DHT22;30877;43.706;10.780;2023-03-14T10:14:10;15.40;96.70
45115;DHT22;30877;43.706;10.780;2023-03-14T10:16:42;15.50;96.70
45115;DHT22;30877;43.706;10.780;2023-03-14T10:19:13;15.60;96.70
45115;DHT22;30877;43.706;10.780;2023-03-14T10:21:42;15.70;96.70
45115;DHT22;30877;43.706;10.780;2023-03-14T10:24:19;15.70;96.70
45115;DHT22;30877;43.706;10.780;2023-03-14T10:26:49;15.90;96.70
45115;DHT22;30877;43.706;10.780;2023-03-14T10:29:17;15.90;96.70
45115;DHT22;30877;43.706;10.780;2023-03-14T10:31:51;16.00;96.70
45115;DHT22;30877;43.706;10.780;2023-03-14T10:34:24;16.00;96.70
45115;DHT22;30877;43.706;10.780;2023-03-14T10:36:54;16.00;96.70
45115;DHT22;30877;43.706;10.780;2023-03-14T10:39:37;16.00;96.70
45115;DHT22;30877;43.706;10.780;2023-03-14T10:42:19;16.00;96.70
45115;DHT22;30877;43.706;10.780;2023-03-14T10:44:53;15.50;96.70
45115;DHT22;30877;43.706;10.780;2023-03-14T10:47:27;14.80;96.70
45115;DHT22;30877;43.706;10.780;2023-03-14T10:49:56;14.20;96.70
45115;DHT22;30877;43.706;10.780;2023-03-14T10:52:26;13.80;96.70
45115;DHT22;30877;43.706;10.780;2023-03-14T10:55:15;13.70;96.70
45115;DHT22;30877;43.706;10.780;2023-03-14T10:57:43;13.30;96.70
45115;DHT22;30877;43.706;10.780;2023-03-14T11:00:16;13.10;96.70
45115;DHT22;30877;43.706;10.780;2023-03-14T11:03:06;13.00;96.70
45115;DHT22;30877;43.706;10.780;2023-03-14T11:05:40;13.10;96.70
45115;DHT22;30877;43.706;10.780;2023-03-14T11:08:12;13.20;96.70
45115;DHT22;30877;43.706;10.780;2023-03-14T11:10:46;13.30;96.70
45115;DHT22;30877;43.706;10.780;2023-03-14T11:13:18;13.50;96.70
45115;DHT22;30877;43.706;10.780;2023-03-14T11:16:01;13.90;96.70
45115;DHT22;30877;43.706;10.780;2023-03-14T11:21:30;14.50;96.70
45115;DHT22;30877;43.706;10.780;2023-03-14T11:27:07;15.50;96.70
45115;DHT22;30877;43.706;10.780;2023-03-14T11:29:39;15.80;96.70
45115;DHT22;30877;43.706;10.780;2023-03-14T11:32:13;16.00;96.70
45115;DHT22;30877;43.706;10.780;2023-03-14T11:34:48;15.80;96.70
45115;DHT22;30877;43.706;10.780;2023-03-14T11:37:21;15.90;96.70
45115;DHT22;30877;43.706;10.780;2023-03-14T11:39:56;16.10;96.70
45115;DHT22;30877;43.706;10.780;2023-03-14T11:42:27;16.40;96.70
45115;DHT22;30877;43.706;10.780;2023-03-14T11:44:57;16.70;96.70
45115;DHT22;30877;43.706;10.780;2023-03-14T11:47:31;16.80;96.70
45115;DHT22;30877;43.706;10.780;2023-03-14T11:50:03;17.00;96.70
45115;DHT22;30877;43.706;10.780;2023-03-14T11:52:37;17.00;96.70
45115;DHT22;30877;43.706;10.780;2023-03-14T11:55:13;17.10;96.70
45115;DHT22;30877;43.706;10.780;2023-03-14T11:57:48;17.30;96.70
45115;DHT22;30877;43.706;10.780;2023-03-14T12:00:20;17.50;96.70
45115;DHT22;30877;43.706;10.780;2023-03-14T12:02:53;17.50;96.70
45115;DHT22;30877;43.706;10.780;2023-03-14T12:05:45;17.40;96.70
45115;DHT22;30877;43.706;10.780;2023-03-14T12:08:39;17.10;96.70
45115;DHT22;30877;43.706;10.780;2023-03-14T12:11:17;16.70;96.70
45115;DHT22;30877;43.706;10.780;2023-03-14T12:13:49;16.60;96.70
45115;DHT22;30877;43.706;10.780;2023-03-14T12:16:36;16.50;96.70
45115;DHT22;30877;43.706;10.780;2023-03-14T12:19:29;16.30;96.70
45115;DHT22;30877;43.706;10.780;2023-03-14T12:22:01;16.40;96.70
45115;DHT22;30877;43.706;10.780;2023-03-14T12:24:34;16.30;96.70
45115;DHT22;30877;43.706;10.780;2023-03-14T12:27:05;16.20;96.70
45115;DHT22;30877;43.706;10.780;2023-03-14T12:30:17;16.10;96.70
45115;DHT22;30877;43.706;10.780;2023-03-14T12:33:14;16.00;96.70
45115;DHT22;30877;43.706;10.780;2023-03-14T12:35:48;15.90;96.70
45115;DHT22;30877;43.706;10.780;2023-03-14T12:38:25;16.00;96.70
45115;DHT22;30877;43.706;10.780;2023-03-14T12:41:00;16.10;96.70
45115;DHT22;30877;43.706;10.780;2023-03-14T12:43:31;16.00;96.70
45115;DHT22;30877;43.706;10.780;2023-03-14T12:46:26;16.00;96.70
45115;DHT22;30877;43.706;10.780;2023-03-14T12:48:55;16.00;96.70
45115;DHT22;30877;43.706;10.780;2023-03-14T12:51:30;16.20;96.70
45115;DHT22;30877;43.706;10.780;2023-03-14T12:54:30;16.30;96.70
45115;DHT22;30877;43.706;10.780;2023-03-14T12:57:25;16.30;96.70
45115;DHT22;30877;43.706;10.780;2023-03-14T12:59:56;16.50;96.70
45115;DHT22;30877;43.706;10.780;2023-03-14T13:02:28;16.40;96.70
45115;DHT22;30877;43.706;10.780;2023-03-14T13:05:04;16.20;96.70
45115;DHT22;30877;43.706;10.780;2023-03-14T13:07:34;16.10;96.70
45115;DHT22;30877;43.706;10.780;2023-03-14T13:10:16;16.20;96.70
45115;DHT22;30877;43.706;10.780;2023-03-14T13:12:50;16.20;96.70
45115;DHT22;30877;43.706;10.780;2023-03-14T13:15:28;16.20;96.70
45115;DHT22;30877;43.706;10.780;2023-03-14T13:18:12;16.10;96.70
45115;DHT22;30877;43.706;10.780;2023-03-14T13:20:45;16.00;96.70
45115;DHT22;30877;43.706;10.780;2023-03-14T13:23:20;15.90;96.70
45115;DHT22;30877;43.706;10.780;2023-03-14T13:25:49;15.80;96.70
45115;DHT22;30877;43.706;10.780;2023-03-14T13:28:18;15.80;96.70
45115;DHT22;30877;43.706;10.780;2023-03-14T13:30:49;15.70;96.70
45115;DHT22;30877;43.706;10.780;2023-03-14T13:33:22;15.70;96.70
45115;DHT22;30877;43.706;10.780;2023-03-14T13:35:55;15.70;96.70
45115;DHT22;30877;43.706;10.780;2023-03-14T13:38:25;15.80;96.70
45115;DHT22;30877;43.706;10.780;2023-03-14T13:40:55;15.80;96.70
45115;DHT22;30877;43.706;10.780;2023-03-14T13:43:29;16.00;96.70
45115;DHT22;30877;43.706;10.780;2023-03-14T13:46:03;16.10;96.70
45115;DHT22;30877;43.706;10.780;2023-03-14T13:48:35;16.10;96.70
45115;DHT22;30877;43.706;10.780;2023-03-14T13:51:09;16.30;96.70
45115;DHT22;30877;43.706;10.780;2023-03-14T13:53:43;16.20;96.70
45115;DHT22;30877;43.706;10.780;2023-03-14T13:56:12;16.10;96.70
45115;DHT22;30877;43.706;10.780;2023-03-14T13:58:41;16.10;96.70
45115;DHT22;30877;43.706;10.780;2023-03-14T14:01:16;16.20;96.70
45115;DHT22;30877;43.706;10.780;2023-03-14T14:03:48;16.20;96.70
45115;DHT22;30877;43.706;10.780;2023-03-14T14:06:37;16.20;96.70
45115;DHT22;30877;43.706;10.780;2023-03-14T14:09:13;16.10;96.70
45115;DHT22;30877;43.706;10.780;2023-03-14T14:11:48;16.10;96.70
45115;DHT22;30877;43.706;10.780;2023-03-14T14:14:40;16.00;96.70
45115;DHT22;30877;43.706;10.780;2023-03-14T14:17:12;16.10;96.70
45115;DHT22;30877;43.706;10.780;2023-03-14T14:19:43;16.10;96.70
45115;DHT22;30877;43.706;10.780;2023-03-14T14:22:12;16.30;96.70
45115;DHT22;30877;43.706;10.780;2023-03-14T14:24:40;16.00;96.70
45115;DHT22;30877;43.706;10.780;2023-03-14T14:27:12;15.80;96.70
45115;DHT22;30877;43.706;10.780;2023-03-14T14:29:41;15.60;96.70
45115;DHT22;30877;43.706;10.780;2023-03-14T14:32:12;15.60;96.70
45115;DHT22;30877;43.706;10.780;2023-03-14T14:34:44;15.70;96.70
45115;DHT22;30877;43.706;10.780;2023-03-14T14:37:20;15.90;96.70
45115;DHT22;30877;43.706;10.780;2023-03-14T14:39:49;15.90;96.70
45115;DHT22;30877;43.706;10.780;2023-03-14T14:42:20;16.20;96.70
45115;DHT22;30877;43.706;10.780;2023-03-14T14:44:52;16.60;96.70
45115;DHT22;30877;43.706;10.780;2023-03-14T14:47:22;16.30;96.70
45115;DHT22;30877;43.706;10.780;2023-03-14T14:49:54;16.10;96.70
45115;DHT22;30877;43.706;10.780;2023-03-14T14:52:33;15.90;96.70
45115;DHT22;30877;43.706;10.780;2023-03-14T14:55:13;15.90;96.70
45115;DHT22;30877;43.706;10.780;2023-03-14T14:57:50;15.80;96.70
45115;DHT22;30877;43.706;10.780;2023-03-14T15:00:20;15.70;96.70
45115;DHT22;30877;43.706;10.780;2023-03-14T15:02:50;15.50;96.70
45115;DHT22;30877;43.706;10.780;2023-03-14T15:05:25;15.40;96.70
45115;DHT22;30877;43.706;10.780;2023-03-14T15:07:54;15.30;96.70
45115;DHT22;30877;43.706;10.780;2023-03-14T15:10:24;15.20;96.70
45115;DHT22;30877;43.706;10.780;2023-03-14T15:12:53;15.20;96.70
45115;DHT22;30877;43.706;10.780;2023-03-14T15:15:21;15.20;96.70
45115;DHT22;30877;43.706;10.780;2023-03-14T15:17:49;15.20;96.70
45115;DHT22;30877;43.706;10.780;2023-03-14T15:20:18;15.10;96.70
45115;DHT22;30877;43.706;10.780;2023-03-14T15:23:02;14.90;96.70
45115;DHT22;30877;43.706;10.780;2023-03-14T15:25:30;14.80;96.70
45115;DHT22;30877;43.706;10.780;2023-03-14T15:28:19;14.80;96.70
45115;DHT22;30877;43.706;10.780;2023-03-14T15:30:48;14.90;96.70
45115;DHT22;30877;43.706;10.780;2023-03-14T15:33:17;15.00;96.70
45115;DHT22;30877;43.706;10.780;2023-03-14T15:35:45;15.00;96.70
45115;DHT22;30877;43.706;10.780;2023-03-14T15:38:16;15.00;96.70
45115;DHT22;30877;43.706;10.780;2023-03-14T15:40:47;15.00;96.70
45115;DHT22;30877;43.706;10.780;2023-03-14T15:43:16;15.00;96.70
45115;DHT22;30877;43.706;10.780;2023-03-14T15:45:44;15.00;96.70
45115;DHT22;30877;43.706;10.780;2023-03-14T15:48:15;15.00;96.70
45115;DHT22;30877;43.706;10.780;2023-03-14T15:50:43;14.90;96.70
45115;DHT22;30877;43.706;10.780;2023-03-14T15:53:12;14.80;96.70
45115;DHT22;30877;43.706;10.780;2023-03-14T15:55:42;14.70;96.70
45115;DHT22;30877;43.706;10.780;2023-03-14T15:58:16;14.60;96.70
45115;DHT22;30877;43.706;10.780;2023-03-14T16:01:03;14.40;96.70
45115;DHT22;30877;43.706;10.780;2023-03-14T16:03:31;14.40;96.70